sensor_id;sensor_type;location;lat;lon;timestamp;pressure;altitude;pressure_sealevel;temperature;humidity
39411;BME280;26579;43.238;23.124;2023-09-07T00:01:06;97543.94;;;21.20;64.97
39411;BME280;26579;43.238;23.124;2023-09-07T00:03:32;97553.38;;;21.23;65.13
39411;BME280;26579;43.238;23.124;2023-09-07T00:05:58;97550.16;;;21.13;66.13
39411;BME280;26579;43.238;23.124;2023-09-07T00:08:23;97541.81;;;21.01;66.94
39411;BME280;26579;43.238;23.124;2023-09-07T00:10:49;97542.94;;;21.07;66.58
39411;BME280;26579;43.238;23.124;2023-09-07T00:13:15;97540.28;;;21.07;65.41
39411;BME280;26579;43.238;23.124;2023-09-07T00:15:40;97550.81;;;21.15;65.22
39411;BME280;26579;43.238;23.124;2023-09-07T00:18:06;97543.69;;;21.15;64.41
39411;BME280;26579;43.238;23.124;2023-09-07T00:20:32;97556.44;;;21.12;64.81
39411;BME280;26579;43.238;23.124;2023-09-07T00:22:57;97546.97;;;21.17;64.71
39411;BME280;26579;43.238;23.124;2023-09-07T00:25:23;97550.97;;;21.13;64.69
39411;BME280;26579;43.238;23.124;2023-09-07T00:27:49;97529.69;;;21.07;64.49
39411;BME280;26579;43.238;23.124;2023-09-07T00:30:14;97545.69;;;21.13;64.84
39411;BME280;26579;43.238;23.124;2023-09-07T00:32:40;97545.69;;;21.13;65.29
39411;BME280;26579;43.238;23.124;2023-09-07T00:35:06;97550.31;;;21.11;65.30
39411;BME280;26579;43.238;23.124;2023-09-07T00:37:33;97545.38;;;21.08;65.09
39411;BME280;26579;43.238;23.124;2023-09-07T00:39:59;97542.44;;;21.03;64.77
39411;BME280;26579;43.238;23.124;2023-09-07T00:42:24;97547.72;;;21.03;64.94
39411;BME280;26579;43.238;23.124;2023-09-07T00:44:50;97547.09;;;21.01;65.22
39411;BME280;26579;43.238;23.124;2023-09-07T00:47:16;97546.28;;;21.00;64.67
39411;BME280;26579;43.238;23.124;2023-09-07T00:49:43;97543.28;;;21.03;64.23
39411;BME280;26579;43.238;23.124;2023-09-07T00:52:09;97557.78;;;21.08;64.26
39411;BME280;26579;43.238;23.124;2023-09-07T00:54:36;97550.50;;;21.10;63.83
39411;BME280;26579;43.238;23.124;2023-09-07T00:57:02;97539.97;;;21.01;64.40
39411;BME280;26579;43.238;23.124;2023-09-07T00:59:28;97553.78;;;21.12;64.94
39411;BME280;26579;43.238;23.124;2023-09-07T01:01:54;97551.69;;;21.07;64.39
39411;BME280;26579;43.238;23.124;2023-09-07T01:04:20;97545.06;;;21.03;64.96
39411;BME280;26579;43.238;23.124;2023-09-07T01:06:52;97553.16;;;21.10;64.69
39411;BME280;26579;43.238;23.124;2023-09-07T01:09:21;97541.63;;;21.02;64.51
39411;BME280;26579;43.238;23.124;2023-09-07T01:11:49;97540.13;;;21.00;64.95
39411;BME280;26579;43.238;23.124;2023-09-07T01:14:14;97542.53;;;20.95;65.45
39411;BME280;26579;43.238;23.124;2023-09-07T01:16:40;97538.28;;;20.86;65.21
39411;BME280;26579;43.238;23.124;2023-09-07T01:19:07;97548.03;;;20.85;65.91
39411;BME280;26579;43.238;23.124;2023-09-07T01:21:37;97541.25;;;20.83;65.77
39411;BME280;26579;43.238;23.124;2023-09-07T01:24:08;97548.22;;;20.84;65.66
39411;BME280;26579;43.238;23.124;2023-09-07T01:26:35;97547.50;;;20.90;64.46
39411;BME280;26579;43.238;23.124;2023-09-07T01:29:01;97539.31;;;20.76;65.13
39411;BME280;26579;43.238;23.124;2023-09-07T01:31:27;97549.53;;;20.79;65.19
39411;BME280;26579;43.238;23.124;2023-09-07T01:33:53;97541.34;;;20.74;65.66
39411;BME280;26579;43.238;23.124;2023-09-07T01:36:19;97536.19;;;20.73;65.91
39411;BME280;26579;43.238;23.124;2023-09-07T01:38:44;97536.50;;;20.78;66.22
39411;BME280;26579;43.238;23.124;2023-09-07T01:41:10;97533.84;;;20.78;66.13
39411;BME280;26579;43.238;23.124;2023-09-07T01:43:37;97539.16;;;20.78;66.37
39411;BME280;26579;43.238;23.124;2023-09-07T01:46:02;97528.31;;;20.65;66.31
39411;BME280;26579;43.238;23.124;2023-09-07T01:48:28;97537.38;;;20.70;65.69
39411;BME280;26579;43.238;23.124;2023-09-07T01:50:54;97537.06;;;20.65;65.81
39411;BME280;26579;43.238;23.124;2023-09-07T01:53:20;97550.13;;;20.67;64.85
39411;BME280;26579;43.238;23.124;2023-09-07T01:55:46;97538.13;;;20.56;66.08
39411;BME280;26579;43.238;23.124;2023-09-07T01:58:12;97540.06;;;20.62;66.22
39411;BME280;26579;43.238;23.124;2023-09-07T02:00:38;97540.59;;;20.57;66.48
39411;BME280;26579;43.238;23.124;2023-09-07T02:03:04;97548.31;;;20.67;66.55
39411;BME280;26579;43.238;23.124;2023-09-07T02:05:30;97553.47;;;20.61;66.85
39411;BME280;26579;43.238;23.124;2023-09-07T02:07:56;97548.53;;;20.49;66.35
39411;BME280;26579;43.238;23.124;2023-09-07T02:10:21;97549.19;;;20.51;66.44
39411;BME280;26579;43.238;23.124;2023-09-07T02:12:47;97556.63;;;20.56;65.90
39411;BME280;26579;43.238;23.124;2023-09-07T02:15:13;97549.56;;;20.48;65.64
39411;BME280;26579;43.238;23.124;2023-09-07T02:17:38;97559.28;;;20.56;65.28
39411;BME280;26579;43.238;23.124;2023-09-07T02:20:05;97552.34;;;20.47;65.80
39411;BME280;26579;43.238;23.124;2023-09-07T02:22:31;97549.38;;;20.42;66.26
39411;BME280;26579;43.238;23.124;2023-09-07T02:24:56;97548.88;;;20.46;65.96
39411;BME280;26579;43.238;23.124;2023-09-07T02:27:22;97544.88;;;20.50;65.85
39411;BME280;26579;43.238;23.124;2023-09-07T02:29:48;97557.94;;;20.52;65.77
39411;BME280;26579;43.238;23.124;2023-09-07T02:32:14;97558.66;;;20.46;66.03
39411;BME280;26579;43.238;23.124;2023-09-07T02:34:39;97557.31;;;20.42;65.89
39411;BME280;26579;43.238;23.124;2023-09-07T02:37:05;97559.97;;;20.42;65.54
39411;BME280;26579;43.238;23.124;2023-09-07T02:39:31;97562.00;;;20.40;65.50
39411;BME280;26579;43.238;23.124;2023-09-07T02:41:56;97552.69;;;20.44;65.26
39411;BME280;26579;43.238;23.124;2023-09-07T02:44:22;97559.00;;;20.43;65.62
39411;BME280;26579;43.238;23.124;2023-09-07T02:46:48;97553.38;;;20.38;66.25
39411;BME280;26579;43.238;23.124;2023-09-07T02:49:14;97555.22;;;20.37;66.32
39411;BME280;26579;43.238;23.124;2023-09-07T02:51:39;97556.53;;;20.33;66.78
39411;BME280;26579;43.238;23.124;2023-09-07T02:54:05;97563.66;;;20.32;66.70
39411;BME280;26579;43.238;23.124;2023-09-07T02:56:32;97551.31;;;20.25;66.84
39411;BME280;26579;43.238;23.124;2023-09-07T02:58:57;97552.16;;;20.17;67.63
39411;BME280;26579;43.238;23.124;2023-09-07T03:01:23;97556.28;;;20.20;67.80
39411;BME280;26579;43.238;23.124;2023-09-07T03:03:49;97557.25;;;20.19;67.78
39411;BME280;26579;43.238;23.124;2023-09-07T03:06:16;97560.56;;;20.21;67.76
39411;BME280;26579;43.238;23.124;2023-09-07T03:08:43;97557.56;;;20.24;67.11
39411;BME280;26579;43.238;23.124;2023-09-07T03:11:09;97555.97;;;20.15;67.58
39411;BME280;26579;43.238;23.124;2023-09-07T03:13:35;97563.22;;;20.12;68.76
39411;BME280;26579;43.238;23.124;2023-09-07T03:16:03;97548.06;;;19.98;68.72
39411;BME280;26579;43.238;23.124;2023-09-07T03:18:29;97574.16;;;20.09;69.27
39411;BME280;26579;43.238;23.124;2023-09-07T03:20:57;97570.88;;;20.07;70.38
39411;BME280;26579;43.238;23.124;2023-09-07T03:23:25;97555.19;;;19.98;70.32
39411;BME280;26579;43.238;23.124;2023-09-07T03:25:50;97567.44;;;19.99;70.08
39411;BME280;26579;43.238;23.124;2023-09-07T03:28:17;97578.28;;;20.04;69.24
39411;BME280;26579;43.238;23.124;2023-09-07T03:30:44;97574.47;;;20.06;70.34
39411;BME280;26579;43.238;23.124;2023-09-07T03:33:10;97576.50;;;20.04;69.93
39411;BME280;26579;43.238;23.124;2023-09-07T03:35:36;97580.94;;;20.04;70.29
39411;BME280;26579;43.238;23.124;2023-09-07T03:38:03;97567.25;;;19.92;71.05
39411;BME280;26579;43.238;23.124;2023-09-07T03:40:29;97579.84;;;19.90;70.59
39411;BME280;26579;43.238;23.124;2023-09-07T03:42:55;97581.00;;;19.87;69.97
39411;BME280;26579;43.238;23.124;2023-09-07T03:45:21;97577.69;;;19.85;69.69
39411;BME280;26579;43.238;23.124;2023-09-07T03:47:47;97596.31;;;19.92;69.78
39411;BME280;26579;43.238;23.124;2023-09-07T03:50:15;97570.59;;;19.78;70.07
39411;BME280;26579;43.238;23.124;2023-09-07T03:52:40;97592.19;;;19.89;70.62
39411;BME280;26579;43.238;23.124;2023-09-07T03:55:07;97596.66;;;19.81;70.57
39411;BME280;26579;43.238;23.124;2023-09-07T03:57:33;97600.16;;;19.81;71.11
39411;BME280;26579;43.238;23.124;2023-09-07T03:59:59;97602.97;;;19.72;71.31
39411;BME280;26579;43.238;23.124;2023-09-07T04:02:25;97597.88;;;19.70;71.02
39411;BME280;26579;43.238;23.124;2023-09-07T04:04:52;97607.56;;;19.78;71.17
39411;BME280;26579;43.238;23.124;2023-09-07T04:07:17;97604.44;;;19.66;71.86
39411;BME280;26579;43.238;23.124;2023-09-07T04:09:46;97611.56;;;19.74;71.40
39411;BME280;26579;43.238;23.124;2023-09-07T04:12:12;97618.81;;;19.72;71.87
39411;BME280;26579;43.238;23.124;2023-09-07T04:14:38;97624.28;;;19.70;72.25
39411;BME280;26579;43.238;23.124;2023-09-07T04:17:04;97626.09;;;19.70;72.65
39411;BME280;26579;43.238;23.124;2023-09-07T04:19:30;97618.16;;;19.61;73.87
39411;BME280;26579;43.238;23.124;2023-09-07T04:21:57;97627.41;;;19.65;73.90
39411;BME280;26579;43.238;23.124;2023-09-07T04:24:23;97628.84;;;19.60;74.54
39411;BME280;26579;43.238;23.124;2023-09-07T04:26:49;97629.22;;;19.65;74.79
39411;BME280;26579;43.238;23.124;2023-09-07T04:29:15;97628.72;;;19.61;74.64
39411;BME280;26579;43.238;23.124;2023-09-07T04:31:42;97635.97;;;19.59;75.09
39411;BME280;26579;43.238;23.124;2023-09-07T04:34:07;97627.88;;;19.53;75.74
39411;BME280;26579;43.238;23.124;2023-09-07T04:36:34;97638.78;;;19.58;75.83
39411;BME280;26579;43.238;23.124;2023-09-07T04:39:00;97638.44;;;19.53;76.17
39411;BME280;26579;43.238;23.124;2023-09-07T04:41:26;97645.38;;;19.54;75.91
39411;BME280;26579;43.238;23.124;2023-09-07T04:43:51;97640.75;;;19.56;74.28
39411;BME280;26579;43.238;23.124;2023-09-07T04:46:21;97643.72;;;19.61;75.11
39411;BME280;26579;43.238;23.124;2023-09-07T04:48:48;97648.81;;;19.54;75.40
39411;BME280;26579;43.238;23.124;2023-09-07T04:51:15;97653.28;;;19.54;75.79
39411;BME280;26579;43.238;23.124;2023-09-07T04:53:40;97655.25;;;19.52;76.42
39411;BME280;26579;43.238;23.124;2023-09-07T04:56:07;97654.78;;;19.56;76.07
39411;BME280;26579;43.238;23.124;2023-09-07T04:58:33;97657.25;;;19.50;77.02
39411;BME280;26579;43.238;23.124;2023-09-07T05:01:08;97662.53;;;19.50;77.78
39411;BME280;26579;43.238;23.124;2023-09-07T05:03:35;97661.22;;;19.54;77.76
39411;BME280;26579;43.238;23.124;2023-09-07T05:06:01;97662.53;;;19.50;76.69
39411;BME280;26579;43.238;23.124;2023-09-07T05:08:27;97671.28;;;19.50;76.76
39411;BME280;26579;43.238;23.124;2023-09-07T05:10:58;97658.09;;;19.50;76.76
39411;BME280;26579;43.238;23.124;2023-09-07T05:13:25;97667.81;;;19.50;77.14
39411;BME280;26579;43.238;23.124;2023-09-07T05:15:52;97655.44;;;19.42;77.91
39411;BME280;26579;43.238;23.124;2023-09-07T05:18:18;97653.28;;;19.45;77.42
39411;BME280;26579;43.238;23.124;2023-09-07T05:20:45;97667.50;;;19.53;77.38
39411;BME280;26579;43.238;23.124;2023-09-07T05:23:14;97658.09;;;19.50;77.32
39411;BME280;26579;43.238;23.124;2023-09-07T05:25:47;97666.97;;;19.57;77.16
39411;BME280;26579;43.238;23.124;2023-09-07T05:28:15;97662.03;;;19.62;76.69
39411;BME280;26579;43.238;23.124;2023-09-07T05:30:42;97667.84;;;19.66;75.94
39411;BME280;26579;43.238;23.124;2023-09-07T05:33:12;97669.34;;;19.68;75.49
39411;BME280;26579;43.238;23.124;2023-09-07T05:35:40;97655.44;;;19.58;75.90
39411;BME280;26579;43.238;23.124;2023-09-07T05:38:06;97667.84;;;19.66;76.31
39411;BME280;26579;43.238;23.124;2023-09-07T05:40:39;97651.31;;;19.64;76.94
39411;BME280;26579;43.238;23.124;2023-09-07T05:43:06;97660.25;;;19.71;77.04
39411;BME280;26579;43.238;23.124;2023-09-07T05:45:38;97665.22;;;19.74;76.98
39411;BME280;26579;43.238;23.124;2023-09-07T05:48:06;97665.34;;;19.81;76.82
39411;BME280;26579;43.238;23.124;2023-09-07T05:50:34;97662.91;;;19.79;76.74
39411;BME280;26579;43.238;23.124;2023-09-07T05:53:01;97660.91;;;19.89;76.74
39411;BME280;26579;43.238;23.124;2023-09-07T05:55:26;97667.34;;;19.95;76.13
39411;BME280;26579;43.238;23.124;2023-09-07T05:57:54;97666.84;;;20.00;75.92
39411;BME280;26579;43.238;23.124;2023-09-07T06:00:22;97661.41;;;20.01;75.26
39411;BME280;26579;43.238;23.124;2023-09-07T06:02:48;97662.72;;;20.05;75.11
39411;BME280;26579;43.238;23.124;2023-09-07T06:05:14;97654.44;;;20.08;74.75
39411;BME280;26579;43.238;23.124;2023-09-07T06:07:40;97649.81;;;20.10;73.79
39411;BME280;26579;43.238;23.124;2023-09-07T06:10:07;97668.94;;;20.21;74.27
39411;BME280;26579;43.238;23.124;2023-09-07T06:12:34;97675.72;;;20.23;73.66
39411;BME280;26579;43.238;23.124;2023-09-07T06:15:01;97662.84;;;20.28;74.14
39411;BME280;26579;43.238;23.124;2023-09-07T06:17:27;97669.75;;;20.29;74.39
39411;BME280;26579;43.238;23.124;2023-09-07T06:19:54;97661.31;;;20.42;71.81
39411;BME280;26579;43.238;23.124;2023-09-07T06:22:20;97660.66;;;20.32;71.78
39411;BME280;26579;43.238;23.124;2023-09-07T06:24:46;97662.97;;;20.35;72.66
39411;BME280;26579;43.238;23.124;2023-09-07T06:27:12;97667.06;;;20.46;72.08
39411;BME280;26579;43.238;23.124;2023-09-07T06:29:37;97686.22;;;20.56;71.74
39411;BME280;26579;43.238;23.124;2023-09-07T06:32:03;97677.13;;;20.58;72.25
39411;BME280;26579;43.238;23.124;2023-09-07T06:34:29;97687.25;;;20.55;71.32
39411;BME280;26579;43.238;23.124;2023-09-07T06:36:55;97685.91;;;20.51;71.50
39411;BME280;26579;43.238;23.124;2023-09-07T06:39:21;97679.63;;;20.44;72.46
39411;BME280;26579;43.238;23.124;2023-09-07T06:41:47;97688.56;;;20.51;72.25
39411;BME280;26579;43.238;23.124;2023-09-07T06:44:13;97689.53;;;20.58;72.37
39411;BME280;26579;43.238;23.124;2023-09-07T06:46:40;97697.81;;;20.55;72.20
39411;BME280;26579;43.238;23.124;2023-09-07T06:49:06;97695.97;;;20.64;70.55
39411;BME280;26579;43.238;23.124;2023-09-07T06:51:31;97698.41;;;20.73;67.35
39411;BME280;26579;43.238;23.124;2023-09-07T06:53:58;97691.16;;;20.67;68.73
39411;BME280;26579;43.238;23.124;2023-09-07T06:56:25;97689.69;;;20.65;68.99
39411;BME280;26579;43.238;23.124;2023-09-07T06:58:51;97688.50;;;20.75;68.79
39411;BME280;26579;43.238;23.124;2023-09-07T07:01:17;97691.25;;;20.82;69.32
39411;BME280;26579;43.238;23.124;2023-09-07T07:03:43;97690.28;;;20.83;68.43
39411;BME280;26579;43.238;23.124;2023-09-07T07:06:09;97691.41;;;20.89;68.90
39411;BME280;26579;43.238;23.124;2023-09-07T07:08:35;97681.69;;;20.81;69.32
39411;BME280;26579;43.238;23.124;2023-09-07T07:11:00;97692.34;;;21.04;68.21
39411;BME280;26579;43.238;23.124;2023-09-07T07:13:26;97689.50;;;21.06;67.80
39411;BME280;26579;43.238;23.124;2023-09-07T07:15:52;97698.22;;;21.14;66.73
39411;BME280;26579;43.238;23.124;2023-09-07T07:18:17;97699.50;;;21.27;66.32
39411;BME280;26579;43.238;23.124;2023-09-07T07:20:43;97702.72;;;21.45;65.84
39411;BME280;26579;43.238;23.124;2023-09-07T07:23:10;97707.78;;;21.55;64.39
39411;BME280;26579;43.238;23.124;2023-09-07T07:25:36;97703.91;;;21.65;64.21
39411;BME280;26579;43.238;23.124;2023-09-07T07:28:05;97701.66;;;21.77;63.71
39411;BME280;26579;43.238;23.124;2023-09-07T07:30:35;97699.06;;;22.07;64.55
39411;BME280;26579;43.238;23.124;2023-09-07T07:33:01;97702.00;;;22.35;62.03
39411;BME280;26579;43.238;23.124;2023-09-07T07:35:27;97693.47;;;22.25;62.63
39411;BME280;26579;43.238;23.124;2023-09-07T07:37:53;97696.59;;;22.28;63.05
39411;BME280;26579;43.238;23.124;2023-09-07T07:40:19;97703.63;;;22.36;61.68
39411;BME280;26579;43.238;23.124;2023-09-07T07:42:46;97708.56;;;22.24;61.27
39411;BME280;26579;43.238;23.124;2023-09-07T07:45:14;97699.13;;;22.22;61.44
39411;BME280;26579;43.238;23.124;2023-09-07T07:47:41;97699.25;;;22.28;61.50
39411;BME280;26579;43.238;23.124;2023-09-07T07:50:07;97699.72;;;22.47;60.60
39411;BME280;26579;43.238;23.124;2023-09-07T07:52:33;97695.19;;;22.92;60.09
39411;BME280;26579;43.238;23.124;2023-09-07T07:54:59;97685.59;;;23.42;55.38
39411;BME280;26579;43.238;23.124;2023-09-07T07:57:25;97686.06;;;23.88;52.36
39411;BME280;26579;43.238;23.124;2023-09-07T07:59:51;97694.09;;;24.23;51.96
39411;BME280;26579;43.238;23.124;2023-09-07T08:02:16;97692.31;;;24.37;51.41
39411;BME280;26579;43.238;23.124;2023-09-07T08:04:42;97690.66;;;24.29;50.87
39411;BME280;26579;43.238;23.124;2023-09-07T08:07:09;97687.59;;;24.32;50.37
39411;BME280;26579;43.238;23.124;2023-09-07T08:09:35;97686.41;;;24.07;50.01
39411;BME280;26579;43.238;23.124;2023-09-07T08:12:01;97687.16;;;23.36;50.07
39411;BME280;26579;43.238;23.124;2023-09-07T08:14:26;97675.78;;;23.06;51.29
39411;BME280;26579;43.238;23.124;2023-09-07T08:16:53;97690.09;;;23.05;52.33
39411;BME280;26579;43.238;23.124;2023-09-07T08:19:18;97691.00;;;22.97;52.79
39411;BME280;26579;43.238;23.124;2023-09-07T08:21:45;97683.03;;;22.97;53.42
39411;BME280;26579;43.238;23.124;2023-09-07T08:24:10;97682.66;;;23.00;52.55
39411;BME280;26579;43.238;23.124;2023-09-07T08:26:36;97697.34;;;22.96;51.80
39411;BME280;26579;43.238;23.124;2023-09-07T08:29:02;97693.66;;;22.97;52.44
39411;BME280;26579;43.238;23.124;2023-09-07T08:31:28;97677.63;;;22.91;53.13
39411;BME280;26579;43.238;23.124;2023-09-07T08:33:53;97680.22;;;22.99;52.80
39411;BME280;26579;43.238;23.124;2023-09-07T08:36:19;97690.91;;;23.05;52.55
39411;BME280;26579;43.238;23.124;2023-09-07T08:38:45;97683.97;;;23.04;51.80
39411;BME280;26579;43.238;23.124;2023-09-07T08:41:11;97693.72;;;23.19;50.38
39411;BME280;26579;43.238;23.124;2023-09-07T08:43:46;97699.53;;;22.78;50.70
39411;BME280;26579;43.238;23.124;2023-09-07T08:46:19;97707.38;;;22.86;52.54
39411;BME280;26579;43.238;23.124;2023-09-07T08:48:46;97709.41;;;22.99;54.75
39411;BME280;26579;43.238;23.124;2023-09-07T08:51:12;97700.81;;;22.97;54.60
39411;BME280;26579;43.238;23.124;2023-09-07T08:53:39;97697.84;;;23.07;55.33
39411;BME280;26579;43.238;23.124;2023-09-07T08:56:06;97705.28;;;23.11;55.85
39411;BME280;26579;43.238;23.124;2023-09-07T08:58:32;97696.38;;;22.89;55.13
39411;BME280;26579;43.238;23.124;2023-09-07T09:00:58;97694.31;;;22.85;55.43
39411;BME280;26579;43.238;23.124;2023-09-07T09:03:24;97702.66;;;22.96;56.11
39411;BME280;26579;43.238;23.124;2023-09-07T09:05:51;97701.00;;;22.95;55.05
39411;BME280;26579;43.238;23.124;2023-09-07T09:08:18;97698.50;;;22.94;54.75
39411;BME280;26579;43.238;23.124;2023-09-07T09:10:44;97694.44;;;23.27;54.59
39411;BME280;26579;43.238;23.124;2023-09-07T09:13:09;97698.72;;;23.50;53.33
39411;BME280;26579;43.238;23.124;2023-09-07T09:15:35;97692.28;;;24.02;51.95
39411;BME280;26579;43.238;23.124;2023-09-07T09:18:09;97699.84;;;24.27;51.62
39411;BME280;26579;43.238;23.124;2023-09-07T09:20:37;97694.78;;;24.67;49.00
39411;BME280;26579;43.238;23.124;2023-09-07T09:23:03;97693.00;;;24.74;48.25
39411;BME280;26579;43.238;23.124;2023-09-07T09:25:29;97681.44;;;24.60;48.85
39411;BME280;26579;43.238;23.124;2023-09-07T09:27:56;97686.34;;;24.56;49.26
39411;BME280;26579;43.238;23.124;2023-09-07T09:30:22;97669.19;;;24.66;49.52
39411;BME280;26579;43.238;23.124;2023-09-07T09:32:48;97694.06;;;24.86;48.60
39411;BME280;26579;43.238;23.124;2023-09-07T09:35:16;97681.16;;;24.90;49.01
39411;BME280;26579;43.238;23.124;2023-09-07T09:37:49;97682.38;;;25.35;47.29
39411;BME280;26579;43.238;23.124;2023-09-07T09:40:15;97676.66;;;25.45;46.86
39411;BME280;26579;43.238;23.124;2023-09-07T09:42:42;97681.34;;;25.36;46.51
39411;BME280;26579;43.238;23.124;2023-09-07T09:45:09;97685.44;;;25.25;46.78
39411;BME280;26579;43.238;23.124;2023-09-07T09:47:39;97670.38;;;25.04;46.88
39411;BME280;26579;43.238;23.124;2023-09-07T09:50:07;97677.75;;;25.02;47.10
39411;BME280;26579;43.238;23.124;2023-09-07T09:52:34;97679.91;;;25.27;48.63
39411;BME280;26579;43.238;23.124;2023-09-07T09:55:00;97669.72;;;25.64;46.56
39411;BME280;26579;43.238;23.124;2023-09-07T09:57:26;97669.56;;;25.99;46.45
39411;BME280;26579;43.238;23.124;2023-09-07T09:59:52;97675.03;;;26.43;46.35
39411;BME280;26579;43.238;23.124;2023-09-07T10:02:17;97671.53;;;26.63;44.66
39411;BME280;26579;43.238;23.124;2023-09-07T10:04:43;97664.50;;;26.75;43.86
39411;BME280;26579;43.238;23.124;2023-09-07T10:07:10;97663.88;;;26.73;43.11
39411;BME280;26579;43.238;23.124;2023-09-07T10:09:38;97666.66;;;26.20;44.32
39411;BME280;26579;43.238;23.124;2023-09-07T10:12:04;97638.75;;;26.03;44.78
39411;BME280;26579;43.238;23.124;2023-09-07T10:14:42;97653.13;;;26.08;45.18
39411;BME280;26579;43.238;23.124;2023-09-07T10:17:08;97655.41;;;25.98;45.03
39411;BME280;26579;43.238;23.124;2023-09-07T10:19:34;97652.94;;;25.90;45.95
39411;BME280;26579;43.238;23.124;2023-09-07T10:21:59;97649.22;;;25.97;45.00
39411;BME280;26579;43.238;23.124;2023-09-07T10:24:34;97654.31;;;26.32;43.78
39411;BME280;26579;43.238;23.124;2023-09-07T10:27:02;97644.59;;;26.71;45.15
39411;BME280;26579;43.238;23.124;2023-09-07T10:29:28;97642.38;;;27.06;42.44
39411;BME280;26579;43.238;23.124;2023-09-07T10:31:54;97645.22;;;27.18;42.99
39411;BME280;26579;43.238;23.124;2023-09-07T10:34:20;97644.16;;;26.81;42.02
39411;BME280;26579;43.238;23.124;2023-09-07T10:36:46;97646.91;;;26.54;42.69
39411;BME280;26579;43.238;23.124;2023-09-07T10:39:12;97635.25;;;26.09;43.69
39411;BME280;26579;43.238;23.124;2023-09-07T10:41:42;97641.88;;;25.93;43.35
39411;BME280;26579;43.238;23.124;2023-09-07T10:44:08;97641.03;;;26.06;43.64
39411;BME280;26579;43.238;23.124;2023-09-07T10:46:34;97636.06;;;26.23;43.25
39411;BME280;26579;43.238;23.124;2023-09-07T10:48:59;97637.09;;;26.15;43.19
39411;BME280;26579;43.238;23.124;2023-09-07T10:51:25;97645.72;;;26.30;44.10
39411;BME280;26579;43.238;23.124;2023-09-07T10:53:51;97642.66;;;26.20;42.88
39411;BME280;26579;43.238;23.124;2023-09-07T10:56:17;97639.75;;;26.28;43.10
39411;BME280;26579;43.238;23.124;2023-09-07T10:58:42;97638.28;;;26.52;43.47
39411;BME280;26579;43.238;23.124;2023-09-07T11:01:09;97630.47;;;26.44;42.39
39411;BME280;26579;43.238;23.124;2023-09-07T11:03:36;97634.19;;;26.43;42.45
39411;BME280;26579;43.238;23.124;2023-09-07T11:06:07;97625.16;;;26.51;42.04
39411;BME280;26579;43.238;23.124;2023-09-07T11:08:34;97621.22;;;26.47;43.12
39411;BME280;26579;43.238;23.124;2023-09-07T11:11:00;97614.09;;;26.34;42.29
39411;BME280;26579;43.238;23.124;2023-09-07T11:13:27;97617.78;;;26.33;42.95
39411;BME280;26579;43.238;23.124;2023-09-07T11:15:54;97627.84;;;26.31;42.99
39411;BME280;26579;43.238;23.124;2023-09-07T11:18:20;97621.34;;;26.07;42.67
39411;BME280;26579;43.238;23.124;2023-09-07T11:20:49;97622.34;;;26.06;43.25
39411;BME280;26579;43.238;23.124;2023-09-07T11:23:17;97622.16;;;26.01;43.28
39411;BME280;26579;43.238;23.124;2023-09-07T11:25:43;97614.97;;;26.01;44.38
39411;BME280;26579;43.238;23.124;2023-09-07T11:28:09;97619.47;;;26.14;44.77
39411;BME280;26579;43.238;23.124;2023-09-07T11:30:35;97621.66;;;26.43;43.70
39411;BME280;26579;43.238;23.124;2023-09-07T11:33:05;97614.88;;;26.54;42.84
39411;BME280;26579;43.238;23.124;2023-09-07T11:35:32;97623.94;;;26.53;42.90
39411;BME280;26579;43.238;23.124;2023-09-07T11:38:02;97612.19;;;26.48;42.06
39411;BME280;26579;43.238;23.124;2023-09-07T11:40:28;97608.53;;;26.42;42.76
39411;BME280;26579;43.238;23.124;2023-09-07T11:42:54;97615.50;;;26.50;42.27
39411;BME280;26579;43.238;23.124;2023-09-07T11:45:20;97609.53;;;26.48;42.45
39411;BME280;26579;43.238;23.124;2023-09-07T11:47:45;97616.88;;;26.66;42.81
39411;BME280;26579;43.238;23.124;2023-09-07T11:50:11;97598.53;;;26.76;41.82
39411;BME280;26579;43.238;23.124;2023-09-07T11:52:37;97606.31;;;26.84;41.85
39411;BME280;26579;43.238;23.124;2023-09-07T11:55:03;97596.63;;;26.90;41.10
39411;BME280;26579;43.238;23.124;2023-09-07T11:57:29;97602.47;;;26.73;41.13
39411;BME280;26579;43.238;23.124;2023-09-07T11:59:55;97593.50;;;26.54;40.85
39411;BME280;26579;43.238;23.124;2023-09-07T12:02:20;97590.41;;;26.57;40.87
39411;BME280;26579;43.238;23.124;2023-09-07T12:04:46;97598.81;;;26.61;41.30
39411;BME280;26579;43.238;23.124;2023-09-07T12:07:12;97586.13;;;26.50;41.57
39411;BME280;26579;43.238;23.124;2023-09-07T12:09:38;97585.41;;;26.74;41.66
39411;BME280;26579;43.238;23.124;2023-09-07T12:12:04;97591.72;;;26.86;40.60
39411;BME280;26579;43.238;23.124;2023-09-07T12:14:29;97583.66;;;27.00;40.22
39411;BME280;26579;43.238;23.124;2023-09-07T12:16:55;97581.69;;;27.14;39.57
39411;BME280;26579;43.238;23.124;2023-09-07T12:19:21;97581.31;;;27.10;39.86
39411;BME280;26579;43.238;23.124;2023-09-07T12:21:46;97582.63;;;27.33;39.70
39411;BME280;26579;43.238;23.124;2023-09-07T12:24:12;97581.03;;;27.25;39.55
39411;BME280;26579;43.238;23.124;2023-09-07T12:26:38;97570.72;;;27.28;40.49
39411;BME280;26579;43.238;23.124;2023-09-07T12:29:04;97578.09;;;27.33;40.12
39411;BME280;26579;43.238;23.124;2023-09-07T12:31:30;97569.09;;;27.27;40.08
39411;BME280;26579;43.238;23.124;2023-09-07T12:33:55;97570.88;;;27.40;40.37
39411;BME280;26579;43.238;23.124;2023-09-07T12:36:21;97566.34;;;27.41;39.94
39411;BME280;26579;43.238;23.124;2023-09-07T12:38:47;97573.09;;;27.43;40.47
39411;BME280;26579;43.238;23.124;2023-09-07T12:41:12;97572.88;;;27.45;40.21
39411;BME280;26579;43.238;23.124;2023-09-07T12:43:38;97568.56;;;27.44;40.71
39411;BME280;26579;43.238;23.124;2023-09-07T12:46:04;97568.50;;;27.50;40.13